createdAt,value
2018-03-31T00:00:38.948Z,975.81
2018-03-31T00:01:38.870Z,975.67
2018-03-31T00:02:38.774Z,975.81
2018-03-31T00:03:38.705Z,975.82
2018-03-31T00:04:38.636Z,975.90
2018-03-31T00:05:38.568Z,975.91
2018-03-31T00:06:38.516Z,975.95
2018-03-31T00:07:38.424Z,976.01
2018-03-31T00:08:38.351Z,976.01
2018-03-31T00:09:38.275Z,975.94
2018-03-31T00:10:38.219Z,975.89
2018-03-31T00:11:38.177Z,975.87
2018-03-31T00:12:38.080Z,975.87
2018-03-31T00:13:37.995Z,975.85
2018-03-31T00:14:37.919Z,975.81
2018-03-31T00:15:37.872Z,975.77
2018-03-31T00:16:37.795Z,975.70
2018-03-31T00:17:37.714Z,975.69
2018-03-31T00:18:37.653Z,975.60
2018-03-31T00:19:37.568Z,975.67
2018-03-31T00:20:37.517Z,975.64
2018-03-31T00:21:37.448Z,975.61
2018-03-31T00:22:37.351Z,975.65
2018-03-31T00:23:37.278Z,975.55
2018-03-31T00:24:37.214Z,975.60
2018-03-31T00:25:37.141Z,975.58
2018-03-31T00:26:37.087Z,975.52
2018-03-31T00:27:37.010Z,975.50
2018-03-31T00:28:36.944Z,975.49
2018-03-31T00:29:36.853Z,975.48
2018-03-31T00:30:36.793Z,975.52
2018-03-31T00:31:36.716Z,975.50
2018-03-31T00:32:36.657Z,975.54
2018-03-31T00:33:36.572Z,975.58
2018-03-31T00:34:36.487Z,975.57
2018-03-31T00:35:36.439Z,975.47
2018-03-31T00:36:36.367Z,975.52
2018-03-31T00:37:36.281Z,975.54
2018-03-31T00:38:36.260Z,975.51
2018-03-31T00:39:36.146Z,975.54
2018-03-31T00:40:36.063Z,975.54
2018-03-31T00:41:36.006Z,975.59
2018-03-31T00:42:35.930Z,975.53
2018-03-31T00:43:35.857Z,975.65
2018-03-31T00:44:35.791Z,975.72
2018-03-31T00:45:35.714Z,975.73
2018-03-31T00:46:35.645Z,975.81
2018-03-31T00:47:35.561Z,975.75
2018-03-31T00:48:35.509Z,975.84
2018-03-31T00:49:35.410Z,975.86
2018-03-31T00:50:35.339Z,975.95
2018-03-31T00:51:35.271Z,975.99
2018-03-31T00:52:35.199Z,975.97
2018-03-31T00:53:35.143Z,976.12
2018-03-31T00:54:35.055Z,976.09
2018-03-31T00:55:34.983Z,976.18
2018-03-31T00:56:34.934Z,976.05
2018-03-31T00:57:34.850Z,976.17
2018-03-31T00:58:34.762Z,976.14
2018-03-31T00:59:34.695Z,976.07
2018-03-31T01:00:34.615Z,976.03
2018-03-31T01:01:34.551Z,976.10
2018-03-31T01:02:34.471Z,976.13
2018-03-31T01:03:34.415Z,976.12
2018-03-31T01:04:34.348Z,976.14
2018-03-31T01:05:34.261Z,976.17
2018-03-31T01:06:34.201Z,976.08
2018-03-31T01:07:34.132Z,976.15
2018-03-31T01:08:34.046Z,976.08
2018-03-31T01:09:33.969Z,976.06
2018-03-31T01:10:33.912Z,976.10
2018-03-31T01:11:33.843Z,976.10
2018-03-31T01:12:33.751Z,975.97
2018-03-31T01:13:33.681Z,975.94
2018-03-31T01:14:33.605Z,975.96
2018-03-31T01:15:33.550Z,975.96
2018-03-31T01:16:33.487Z,975.90
2018-03-31T01:17:33.395Z,975.93
2018-03-31T01:18:33.336Z,975.94
2018-03-31T01:19:33.245Z,975.95
2018-03-31T01:20:33.177Z,975.92
2018-03-31T01:21:33.100Z,975.94
2018-03-31T01:22:33.065Z,976.02
2018-03-31T01:23:33.004Z,976.06
2018-03-31T01:24:32.912Z,976.09
2018-03-31T01:25:32.811Z,976.04
2018-03-31T01:26:32.790Z,976.01
2018-03-31T01:27:32.674Z,976.03
2018-03-31T01:28:32.597Z,976.12
2018-03-31T01:29:32.561Z,976.04
2018-03-31T01:30:32.454Z,976.08
2018-03-31T01:31:32.391Z,976.09
2018-03-31T01:32:32.319Z,976.13
2018-03-31T01:33:32.241Z,976.16
2018-03-31T01:34:32.164Z,976.18
2018-03-31T01:35:32.110Z,976.21
2018-03-31T01:36:32.031Z,976.23
2018-03-31T01:37:31.947Z,976.23
2018-03-31T01:38:31.895Z,976.17
2018-03-31T01:39:31.817Z,976.26
2018-03-31T01:40:31.756Z,976.20
2018-03-31T01:41:31.658Z,976.19
2018-03-31T01:42:31.585Z,976.17
2018-03-31T01:43:31.514Z,976.26
2018-03-31T01:44:31.442Z,976.18
2018-03-31T01:45:31.374Z,976.19
2018-03-31T01:46:31.298Z,976.20
2018-03-31T01:47:31.224Z,976.24
2018-03-31T01:48:31.164Z,976.27
2018-03-31T01:49:31.081Z,976.23
2018-03-31T01:50:31.022Z,976.37
2018-03-31T01:51:30.937Z,976.25
2018-03-31T01:52:30.880Z,976.30
2018-03-31T01:53:30.813Z,976.29
2018-03-31T01:54:30.741Z,976.28
2018-03-31T01:55:30.644Z,976.38
2018-03-31T01:56:30.574Z,976.31
2018-03-31T01:57:30.502Z,976.32
2018-03-31T01:58:30.444Z,976.32
2018-03-31T01:59:30.373Z,976.36
2018-03-31T02:00:30.285Z,976.34
2018-03-31T02:01:30.208Z,976.35
2018-03-31T02:02:30.136Z,976.27
2018-03-31T02:03:30.067Z,976.28
2018-03-31T02:04:29.994Z,976.20
2018-03-31T02:05:29.933Z,976.17
2018-03-31T02:06:29.857Z,976.27
2018-03-31T02:07:29.776Z,976.21
2018-03-31T02:08:29.722Z,976.15
2018-03-31T02:09:29.637Z,976.15
2018-03-31T02:10:29.577Z,976.18
2018-03-31T02:11:29.505Z,976.12
2018-03-31T02:12:29.417Z,976.15
2018-03-31T02:13:29.342Z,976.18
2018-03-31T02:14:29.276Z,976.12
2018-03-31T02:15:29.227Z,976.16
2018-03-31T02:16:29.134Z,976.09
2018-03-31T02:17:29.070Z,976.15
2018-03-31T02:18:28.990Z,976.14
2018-03-31T02:19:28.934Z,976.18
2018-03-31T02:20:28.860Z,976.10
2018-03-31T02:21:28.770Z,976.19
2018-03-31T02:22:28.706Z,976.20
2018-03-31T02:23:28.626Z,976.17
2018-03-31T02:24:28.552Z,976.04
2018-03-31T02:25:28.506Z,976.03
2018-03-31T02:26:28.436Z,976.06
2018-03-31T02:27:28.332Z,976.10
2018-03-31T02:28:28.268Z,976.03
2018-03-31T02:29:28.207Z,976.13
2018-03-31T02:30:28.128Z,975.99
2018-03-31T02:31:28.050Z,975.96
2018-03-31T02:32:27.997Z,975.89
2018-03-31T02:33:27.929Z,975.93
2018-03-31T02:34:27.853Z,975.94
2018-03-31T02:35:27.771Z,975.99
2018-03-31T02:36:27.718Z,976.00
2018-03-31T02:37:27.611Z,976.06
2018-03-31T02:38:27.544Z,975.98
2018-03-31T02:39:27.466Z,976.00
2018-03-31T02:40:27.416Z,975.93
2018-03-31T02:41:27.329Z,975.88
2018-03-31T02:42:27.255Z,975.87
2018-03-31T02:43:27.182Z,975.75
2018-03-31T02:44:27.110Z,975.82
2018-03-31T02:45:27.050Z,975.76
2018-03-31T02:46:26.963Z,975.78
2018-03-31T02:47:26.894Z,975.83
2018-03-31T02:48:26.828Z,975.81
2018-03-31T02:49:26.795Z,975.84
2018-03-31T02:50:26.700Z,975.84
2018-03-31T02:51:26.600Z,975.90
2018-03-31T02:52:26.559Z,975.88
2018-03-31T02:53:26.467Z,975.83
2018-03-31T02:54:26.397Z,975.88
2018-03-31T02:55:26.337Z,975.94
2018-03-31T02:56:26.244Z,975.93
2018-03-31T02:57:26.171Z,975.93
2018-03-31T02:58:26.113Z,975.99
2018-03-31T02:59:26.042Z,975.97
2018-03-31T03:00:25.949Z,975.98
2018-03-31T03:01:25.981Z,975.96
2018-03-31T03:02:25.817Z,976.07
2018-03-31T03:03:25.766Z,975.93
2018-03-31T03:04:25.669Z,976.00
2018-03-31T03:05:25.592Z,975.88
2018-03-31T03:06:25.530Z,975.96
2018-03-31T03:07:25.466Z,975.99
2018-03-31T03:08:25.374Z,975.94
2018-03-31T03:09:25.315Z,975.95
2018-03-31T03:10:25.233Z,975.93
2018-03-31T03:11:25.233Z,975.94
2018-03-31T03:12:25.101Z,975.92
2018-03-31T03:13:25.008Z,975.97
2018-03-31T03:14:24.973Z,975.98
2018-03-31T03:15:24.864Z,975.94
2018-03-31T03:16:24.792Z,975.94
2018-03-31T03:17:24.720Z,975.96
2018-03-31T03:18:24.649Z,975.97
2018-03-31T03:19:24.588Z,975.96
2018-03-31T03:20:24.528Z,975.95
2018-03-31T03:21:24.450Z,975.99
2018-03-31T03:22:24.367Z,976.04
2018-03-31T03:23:24.312Z,975.98
2018-03-31T03:24:24.222Z,976.03
2018-03-31T03:25:24.145Z,976.05
2018-03-31T03:26:24.086Z,976.00
2018-03-31T03:27:24.006Z,976.07
2018-03-31T03:28:23.946Z,975.83
2018-03-31T03:29:23.871Z,975.97
2018-03-31T03:30:23.782Z,976.04
2018-03-31T03:31:23.739Z,976.02
2018-03-31T03:32:23.643Z,975.97
2018-03-31T03:33:23.586Z,975.96
2018-03-31T03:34:23.499Z,975.99
2018-03-31T03:35:23.428Z,975.94
2018-03-31T03:36:23.379Z,975.95
2018-03-31T03:37:23.292Z,975.97
2018-03-31T03:38:23.217Z,975.88
2018-03-31T03:39:23.158Z,975.96
2018-03-31T03:40:23.061Z,975.98
2018-03-31T03:41:22.987Z,975.90
2018-03-31T03:42:22.911Z,976.00
2018-03-31T03:43:22.842Z,975.96
2018-03-31T03:44:22.788Z,975.96
2018-03-31T03:45:22.712Z,975.95
2018-03-31T03:46:22.653Z,976.00
2018-03-31T03:47:22.565Z,975.92
2018-03-31T03:48:22.487Z,976.00
2018-03-31T03:49:22.409Z,975.90
2018-03-31T03:50:22.343Z,975.98
2018-03-31T03:51:22.280Z,975.95
2018-03-31T03:52:22.226Z,975.98
2018-03-31T03:53:22.118Z,975.97
2018-03-31T03:54:22.044Z,976.05
2018-03-31T03:55:22.001Z,976.08
2018-03-31T03:56:21.906Z,976.07
2018-03-31T03:57:21.855Z,976.12
2018-03-31T03:58:21.755Z,976.19
2018-03-31T03:59:21.699Z,976.20
2018-03-31T04:00:21.622Z,976.22
2018-03-31T04:01:21.560Z,976.16
2018-03-31T04:02:21.486Z,976.15
2018-03-31T04:03:21.400Z,976.22
2018-03-31T04:04:21.325Z,976.25
2018-03-31T04:05:21.280Z,976.16
2018-03-31T04:06:21.207Z,976.27
2018-03-31T04:07:21.104Z,976.29
2018-03-31T04:08:21.052Z,976.31
2018-03-31T04:09:20.967Z,976.24
2018-03-31T04:10:20.910Z,976.29
2018-03-31T04:11:20.838Z,976.29
2018-03-31T04:12:20.804Z,976.25
2018-03-31T04:13:20.683Z,976.33
2018-03-31T04:14:20.606Z,976.34
2018-03-31T04:15:20.580Z,976.44
2018-03-31T04:16:20.479Z,976.50
2018-03-31T04:17:20.384Z,976.55
2018-03-31T04:18:20.326Z,976.58
2018-03-31T04:19:20.271Z,976.56
2018-03-31T04:20:20.184Z,976.64
2018-03-31T04:21:20.110Z,976.61
2018-03-31T04:22:20.042Z,976.69
2018-03-31T04:23:19.968Z,976.67
2018-03-31T04:24:19.904Z,976.68
2018-03-31T04:25:19.814Z,976.68
2018-03-31T04:26:19.736Z,976.75
2018-03-31T04:27:19.663Z,976.75
2018-03-31T04:28:19.602Z,976.78
2018-03-31T04:29:19.519Z,976.76
2018-03-31T04:30:19.467Z,976.80
2018-03-31T04:31:19.392Z,976.85
2018-03-31T04:32:19.321Z,976.87
2018-03-31T04:33:19.252Z,976.92
2018-03-31T04:34:19.187Z,976.91
2018-03-31T04:35:19.088Z,976.93
2018-03-31T04:36:19.015Z,976.97
2018-03-31T04:37:18.941Z,976.92
2018-03-31T04:38:18.898Z,976.98
2018-03-31T04:39:18.812Z,977.01
2018-03-31T04:40:18.729Z,977.12
2018-03-31T04:41:18.668Z,977.16
2018-03-31T04:42:18.627Z,977.19
2018-03-31T04:43:18.529Z,977.26
2018-03-31T04:44:18.443Z,977.21
2018-03-31T04:45:18.390Z,977.18
2018-03-31T04:46:18.312Z,977.18
2018-03-31T04:47:18.269Z,977.24
2018-03-31T04:48:18.174Z,977.25
2018-03-31T04:49:18.097Z,977.25
2018-03-31T04:50:18.008Z,977.32
2018-03-31T04:51:17.940Z,977.33
2018-03-31T04:52:17.881Z,977.37
2018-03-31T04:53:17.787Z,977.39
2018-03-31T04:54:17.749Z,977.39
2018-03-31T04:55:17.670Z,977.38
2018-03-31T04:56:17.596Z,977.41
2018-03-31T04:57:17.529Z,977.45
2018-03-31T04:58:17.434Z,977.49
2018-03-31T04:59:17.374Z,977.47
2018-03-31T05:00:17.293Z,977.53
2018-03-31T05:01:17.230Z,977.40
2018-03-31T05:02:17.159Z,977.45
2018-03-31T05:03:17.075Z,977.46
2018-03-31T05:04:17.024Z,977.54
2018-03-31T05:05:16.939Z,977.51
2018-03-31T05:06:16.915Z,977.60
2018-03-31T05:07:16.810Z,977.56
2018-03-31T05:08:16.716Z,977.60
2018-03-31T05:09:16.647Z,977.60
2018-03-31T05:10:16.573Z,977.52
2018-03-31T05:11:16.518Z,977.62
2018-03-31T05:12:16.422Z,977.60
2018-03-31T05:13:16.368Z,977.63
2018-03-31T05:14:16.300Z,977.65
2018-03-31T05:15:16.231Z,977.69
2018-03-31T05:16:16.156Z,977.66
2018-03-31T05:17:16.063Z,977.64
2018-03-31T05:18:15.988Z,977.63
2018-03-31T05:19:15.918Z,977.58
2018-03-31T05:20:15.878Z,977.56
2018-03-31T05:21:15.778Z,977.51
2018-03-31T05:22:15.708Z,977.58
2018-03-31T05:23:15.652Z,977.57
2018-03-31T05:24:15.556Z,977.57
2018-03-31T05:25:15.500Z,977.63
2018-03-31T05:26:15.429Z,977.67
2018-03-31T05:27:15.340Z,977.64
2018-03-31T05:28:15.279Z,977.74
2018-03-31T05:29:15.218Z,977.66
2018-03-31T05:30:15.150Z,977.64
2018-03-31T05:31:15.072Z,977.66
2018-03-31T05:32:14.993Z,977.67
2018-03-31T05:33:14.913Z,977.57
2018-03-31T05:34:14.856Z,977.71
2018-03-31T05:35:14.786Z,977.69
2018-03-31T05:36:14.696Z,977.71
2018-03-31T05:37:14.650Z,977.76
2018-03-31T05:38:14.556Z,977.77
2018-03-31T05:39:14.496Z,977.82
2018-03-31T05:40:14.411Z,977.88
2018-03-31T05:41:14.335Z,977.90
2018-03-31T05:42:14.288Z,977.92
2018-03-31T05:43:14.217Z,977.93
2018-03-31T05:44:14.134Z,977.98
2018-03-31T05:45:14.045Z,978.03
2018-03-31T05:46:13.975Z,978.02
2018-03-31T05:47:13.916Z,978.01
2018-03-31T05:48:13.826Z,978.03
2018-03-31T05:49:13.770Z,978.08
2018-03-31T05:50:13.700Z,978.07
2018-03-31T05:51:13.638Z,978.15
2018-03-31T05:52:13.584Z,978.14
2018-03-31T05:53:13.476Z,978.16
2018-03-31T05:54:13.412Z,978.22
2018-03-31T05:55:13.327Z,978.18
2018-03-31T05:56:13.274Z,978.26
2018-03-31T05:57:13.195Z,978.21
2018-03-31T05:58:13.112Z,978.28
2018-03-31T05:59:13.039Z,978.31
2018-03-31T06:00:12.971Z,978.32
2018-03-31T06:01:12.890Z,978.27
2018-03-31T06:02:12.839Z,978.34
2018-03-31T06:03:12.745Z,978.39
2018-03-31T06:04:12.710Z,978.34
2018-03-31T06:05:12.609Z,978.39
2018-03-31T06:06:12.555Z,978.41
2018-03-31T06:07:12.478Z,978.41
2018-03-31T06:08:12.414Z,978.44
2018-03-31T06:09:12.333Z,978.40
2018-03-31T06:10:12.242Z,978.44
2018-03-31T06:11:12.171Z,978.50
2018-03-31T06:12:12.132Z,978.61
2018-03-31T06:13:12.033Z,978.57
2018-03-31T06:14:11.957Z,978.50
2018-03-31T06:15:11.883Z,978.64
2018-03-31T06:16:11.805Z,978.55
2018-03-31T06:17:11.783Z,978.68
2018-03-31T06:18:11.663Z,978.68
2018-03-31T06:19:11.606Z,978.66
2018-03-31T06:20:11.523Z,978.75
2018-03-31T06:21:11.474Z,978.77
2018-03-31T06:22:11.392Z,978.80
2018-03-31T06:23:11.316Z,978.84
2018-03-31T06:24:11.237Z,978.86
2018-03-31T06:25:11.180Z,978.91
2018-03-31T06:26:11.122Z,978.77
2018-03-31T06:27:11.028Z,978.76
2018-03-31T06:28:10.945Z,978.85
2018-03-31T06:29:10.888Z,978.71
2018-03-31T06:30:10.795Z,978.80
2018-03-31T06:31:10.734Z,978.79
2018-03-31T06:32:10.643Z,978.77
2018-03-31T06:33:10.580Z,978.90
2018-03-31T06:34:10.501Z,978.95
2018-03-31T06:35:10.431Z,979.00
2018-03-31T06:36:10.361Z,979.12
2018-03-31T06:37:10.328Z,979.19
2018-03-31T06:38:10.213Z,979.14
2018-03-31T06:39:10.140Z,979.20
2018-03-31T06:40:10.079Z,979.27
2018-03-31T06:41:10.013Z,979.42
2018-03-31T06:42:09.940Z,979.41
2018-03-31T06:43:09.863Z,979.44
2018-03-31T06:44:09.803Z,979.39
2018-03-31T06:45:09.725Z,979.44
2018-03-31T06:46:09.640Z,979.48
2018-03-31T06:47:09.606Z,979.47
2018-03-31T06:48:09.518Z,979.51
2018-03-31T06:49:09.438Z,979.57
2018-03-31T06:50:09.370Z,979.56
2018-03-31T06:51:09.302Z,979.58
2018-03-31T06:52:09.215Z,979.62
2018-03-31T06:53:09.143Z,979.60
2018-03-31T06:54:09.086Z,979.68
2018-03-31T06:55:08.999Z,979.72
2018-03-31T06:56:08.940Z,979.83
2018-03-31T06:57:08.848Z,979.81
2018-03-31T06:58:08.775Z,979.84
2018-03-31T06:59:08.717Z,979.93
2018-03-31T07:00:08.663Z,979.96
2018-03-31T07:01:08.584Z,980.00
2018-03-31T07:02:08.518Z,980.01
2018-03-31T07:03:08.451Z,980.01
2018-03-31T07:04:08.353Z,980.00
2018-03-31T07:05:08.298Z,980.08
2018-03-31T07:06:08.213Z,980.13
2018-03-31T07:07:08.154Z,980.18
2018-03-31T07:08:08.088Z,980.18
2018-03-31T07:09:08.014Z,980.23
2018-03-31T07:10:07.932Z,980.31
2018-03-31T07:11:07.865Z,980.35
2018-03-31T07:12:07.805Z,980.29
2018-03-31T07:13:07.739Z,980.31
2018-03-31T07:14:07.677Z,980.36
2018-03-31T07:15:07.587Z,980.40
2018-03-31T07:16:07.513Z,980.56
2018-03-31T07:17:07.457Z,980.60
2018-03-31T07:18:07.397Z,980.62
2018-03-31T07:19:07.298Z,980.68
2018-03-31T07:20:07.236Z,980.63
2018-03-31T07:21:07.181Z,980.70
2018-03-31T07:22:07.111Z,980.79
2018-03-31T07:23:07.015Z,980.81
2018-03-31T07:24:06.979Z,980.81
2018-03-31T07:25:06.890Z,980.87
2018-03-31T07:26:06.817Z,980.90
2018-03-31T07:27:06.731Z,980.90
2018-03-31T07:28:06.662Z,980.91
2018-03-31T07:29:06.610Z,980.88
2018-03-31T07:30:06.545Z,980.90
2018-03-31T07:31:06.472Z,980.85
2018-03-31T07:32:06.413Z,980.92
2018-03-31T07:33:06.317Z,980.95
2018-03-31T07:34:06.260Z,981.01
2018-03-31T07:35:06.203Z,981.07
2018-03-31T07:36:06.122Z,981.10
2018-03-31T07:37:06.083Z,981.11
2018-03-31T07:38:05.990Z,981.09
2018-03-31T07:39:05.920Z,981.11
2018-03-31T07:40:05.822Z,981.10
2018-03-31T07:41:05.754Z,981.22
2018-03-31T07:42:05.686Z,981.21
2018-03-31T07:43:05.619Z,981.26
2018-03-31T07:44:05.557Z,981.26
2018-03-31T07:45:05.483Z,981.22
2018-03-31T07:46:05.416Z,981.26
2018-03-31T07:47:05.342Z,981.23
2018-03-31T07:48:05.284Z,981.29
2018-03-31T07:49:05.238Z,981.24
2018-03-31T07:50:05.157Z,981.34
2018-03-31T07:51:05.063Z,981.32
2018-03-31T07:52:05.031Z,981.32
2018-03-31T07:53:04.952Z,981.34
2018-03-31T07:54:04.862Z,981.46
2018-03-31T07:55:04.788Z,981.37
2018-03-31T07:56:04.778Z,981.40
2018-03-31T07:57:04.721Z,981.52
2018-03-31T07:58:04.594Z,981.43
2018-03-31T07:59:04.537Z,981.47
2018-03-31T08:00:04.467Z,981.53
2018-03-31T08:01:04.393Z,981.50
2018-03-31T08:02:04.303Z,981.50
2018-03-31T08:03:04.237Z,981.46
2018-03-31T08:04:04.184Z,981.33
2018-03-31T08:05:04.122Z,981.52
2018-03-31T08:06:04.050Z,981.51
2018-03-31T08:07:03.962Z,981.47
2018-03-31T08:08:03.896Z,981.52
2018-03-31T08:09:03.886Z,981.72
2018-03-31T08:10:03.776Z,981.58
2018-03-31T08:11:03.692Z,981.55
2018-03-31T08:12:03.625Z,981.62
2018-03-31T08:13:03.572Z,981.72
2018-03-31T08:14:03.504Z,981.80
2018-03-31T08:15:03.416Z,981.87
2018-03-31T08:16:03.364Z,981.75
2018-03-31T08:17:03.284Z,981.79
2018-03-31T08:18:03.220Z,981.79
2018-03-31T08:19:03.163Z,981.95
2018-03-31T08:20:03.076Z,982.04
2018-03-31T08:21:03.046Z,981.88
2018-03-31T08:22:02.956Z,981.81
2018-03-31T08:23:02.880Z,981.78
2018-03-31T08:24:02.803Z,981.98
2018-03-31T08:25:02.728Z,982.03
2018-03-31T08:26:02.659Z,981.90
2018-03-31T08:27:02.590Z,981.97
2018-03-31T08:28:02.531Z,982.03
2018-03-31T08:29:02.453Z,982.08
2018-03-31T08:30:02.402Z,982.33
2018-03-31T08:31:02.312Z,982.21
2018-03-31T08:32:02.263Z,982.11
2018-03-31T08:33:02.186Z,982.16
2018-03-31T08:34:02.126Z,982.17
2018-03-31T08:35:02.045Z,982.26
2018-03-31T08:36:01.988Z,982.21
2018-03-31T08:37:01.901Z,982.25
2018-03-31T08:38:01.857Z,982.29
2018-03-31T08:39:01.774Z,982.29
2018-03-31T08:40:01.717Z,982.63
2018-03-31T08:41:01.651Z,982.47
2018-03-31T08:42:01.559Z,982.41
2018-03-31T08:43:01.515Z,982.50
2018-03-31T08:44:01.428Z,982.52
2018-03-31T08:45:01.353Z,982.51
2018-03-31T08:46:01.293Z,982.58
2018-03-31T08:47:01.274Z,982.68
2018-03-31T08:48:01.151Z,982.50
2018-03-31T08:49:01.087Z,982.68
2018-03-31T08:50:01.017Z,982.67
2018-03-31T08:51:00.941Z,982.76
2018-03-31T08:52:00.875Z,982.69
2018-03-31T08:53:00.809Z,982.63
2018-03-31T08:54:00.750Z,982.52
2018-03-31T08:55:00.686Z,982.78
2018-03-31T08:56:00.598Z,982.74
2018-03-31T08:57:00.555Z,982.72
2018-03-31T08:58:00.477Z,982.77
2018-03-31T08:59:00.388Z,982.77
2018-03-31T09:00:00.338Z,982.80
2018-03-31T09:01:00.256Z,982.91
2018-03-31T09:02:00.192Z,983.01
2018-03-31T09:03:00.118Z,982.99
2018-03-31T09:04:00.072Z,983.01
2018-03-31T09:04:59.993Z,983.12
2018-03-31T09:05:59.920Z,983.08
2018-03-31T09:06:59.846Z,983.09
2018-03-31T09:07:59.795Z,983.13
2018-03-31T09:08:59.709Z,983.15
2018-03-31T09:09:59.643Z,983.20
2018-03-31T09:10:59.598Z,983.19
2018-03-31T09:11:59.501Z,983.31
2018-03-31T09:12:59.448Z,983.25
2018-03-31T09:13:59.368Z,983.14
2018-03-31T09:14:59.320Z,983.27
2018-03-31T09:15:59.226Z,983.26
2018-03-31T09:16:59.156Z,983.26
2018-03-31T09:17:59.086Z,983.51
2018-03-31T09:18:59.018Z,983.34
2018-03-31T09:19:58.975Z,983.31
2018-03-31T09:20:58.887Z,983.28
2018-03-31T09:21:58.869Z,983.21
2018-03-31T09:22:58.748Z,983.37
2018-03-31T09:23:58.697Z,983.37
2018-03-31T09:24:58.631Z,983.20
2018-03-31T09:25:58.571Z,983.21
2018-03-31T09:26:58.466Z,983.36
2018-03-31T09:27:58.401Z,983.38
2018-03-31T09:28:58.352Z,983.32
2018-03-31T09:29:58.284Z,983.37
2018-03-31T09:30:58.214Z,983.33
2018-03-31T09:31:58.133Z,983.22
2018-03-31T09:32:58.082Z,983.46
2018-03-31T09:33:57.997Z,983.40
2018-03-31T09:34:57.947Z,983.47
2018-03-31T09:35:57.874Z,983.36
2018-03-31T09:36:57.785Z,983.36
2018-03-31T09:37:57.729Z,983.29
2018-03-31T09:38:57.667Z,983.46
2018-03-31T09:39:57.640Z,983.70
2018-03-31T09:40:57.529Z,983.44
2018-03-31T09:41:57.463Z,983.49
2018-03-31T09:42:57.371Z,983.51
2018-03-31T09:43:57.326Z,983.43
2018-03-31T09:44:57.245Z,983.40
2018-03-31T09:45:57.188Z,983.73
2018-03-31T09:46:57.097Z,983.83
2018-03-31T09:47:57.023Z,983.79
2018-03-31T09:48:56.956Z,983.78
2018-03-31T09:49:56.891Z,983.83
2018-03-31T09:50:56.817Z,983.82
2018-03-31T09:51:56.764Z,983.94
2018-03-31T09:52:56.691Z,983.97
2018-03-31T09:53:56.645Z,983.91
2018-03-31T09:54:56.556Z,984.02
2018-03-31T09:55:56.478Z,983.91
2018-03-31T09:56:56.422Z,983.97
2018-03-31T09:57:56.351Z,983.99
2018-03-31T09:58:56.301Z,983.89
2018-03-31T09:59:56.201Z,983.88
2018-03-31T10:00:56.127Z,984.03
2018-03-31T10:01:56.087Z,984.05
2018-03-31T10:02:55.988Z,984.07
2018-03-31T10:03:55.979Z,984.18
2018-03-31T10:04:55.877Z,984.12
2018-03-31T10:05:55.854Z,984.13
2018-03-31T10:06:55.729Z,984.06
2018-03-31T10:07:55.677Z,984.19
2018-03-31T10:08:55.585Z,984.28
2018-03-31T10:09:55.516Z,984.21
2018-03-31T10:10:55.442Z,984.30
2018-03-31T10:11:55.390Z,984.27
2018-03-31T10:12:55.320Z,984.24
2018-03-31T10:13:55.256Z,984.25
2018-03-31T10:14:55.166Z,984.31
2018-03-31T10:15:55.111Z,984.10
2018-03-31T10:16:55.030Z,984.11
2018-03-31T10:17:54.987Z,984.22
2018-03-31T10:18:54.905Z,984.26
2018-03-31T10:19:54.850Z,984.27
2018-03-31T10:20:54.783Z,984.33
2018-03-31T10:21:54.697Z,984.36
2018-03-31T10:22:54.631Z,984.36
2018-03-31T10:23:54.564Z,984.50
2018-03-31T10:24:54.506Z,984.39
2018-03-31T10:25:54.419Z,984.34
2018-03-31T10:26:54.361Z,984.30
2018-03-31T10:27:54.306Z,984.36
2018-03-31T10:28:54.243Z,984.24
2018-03-31T10:29:54.161Z,984.32
2018-03-31T10:30:54.094Z,984.40
2018-03-31T10:31:54.021Z,984.38
2018-03-31T10:32:53.957Z,984.52
2018-03-31T10:33:53.898Z,984.27
2018-03-31T10:34:53.823Z,984.35
2018-03-31T10:35:53.738Z,984.56
2018-03-31T10:36:53.681Z,984.37
2018-03-31T10:37:53.598Z,984.44
2018-03-31T10:38:53.570Z,984.43
2018-03-31T10:39:53.473Z,984.36
2018-03-31T10:40:53.391Z,984.33
2018-03-31T10:41:53.345Z,984.49
2018-03-31T10:42:53.270Z,984.46
2018-03-31T10:43:53.189Z,984.45
2018-03-31T10:44:53.136Z,984.48
2018-03-31T10:45:53.049Z,984.50
2018-03-31T10:46:53.007Z,984.53
2018-03-31T10:47:52.939Z,984.66
2018-03-31T10:48:52.894Z,984.52
2018-03-31T10:49:52.817Z,984.67
2018-03-31T10:50:52.715Z,984.58
2018-03-31T10:51:52.657Z,984.55
2018-03-31T10:52:52.593Z,984.50
2018-03-31T10:53:52.499Z,984.65
2018-03-31T10:54:52.454Z,984.65
2018-03-31T10:55:52.364Z,984.69
2018-03-31T10:56:52.303Z,984.69
2018-03-31T10:57:52.233Z,984.75
2018-03-31T10:58:52.152Z,984.91
2018-03-31T10:59:52.127Z,984.77
2018-03-31T11:00:52.047Z,984.86
2018-03-31T11:01:51.966Z,984.88
2018-03-31T11:02:51.896Z,984.78
2018-03-31T11:03:51.814Z,984.72
2018-03-31T11:04:51.743Z,984.87
2018-03-31T11:05:51.675Z,984.89
2018-03-31T11:06:51.626Z,984.83
2018-03-31T11:07:51.538Z,984.73
2018-03-31T11:08:51.469Z,984.79
2018-03-31T11:09:51.407Z,984.84
2018-03-31T11:10:51.322Z,985.04
2018-03-31T11:11:51.252Z,985.10
2018-03-31T11:12:51.295Z,984.98
2018-03-31T11:13:51.148Z,984.92
2018-03-31T11:14:51.065Z,985.00
2018-03-31T11:15:51.027Z,984.99
2018-03-31T11:16:50.945Z,984.92
2018-03-31T11:17:50.852Z,984.97
2018-03-31T11:18:50.804Z,985.01
2018-03-31T11:19:50.728Z,985.02
2018-03-31T11:20:50.661Z,985.12
2018-03-31T11:21:50.576Z,984.99
2018-03-31T11:22:50.508Z,985.06
2018-03-31T11:23:50.449Z,985.07
2018-03-31T11:24:50.377Z,985.23
2018-03-31T11:25:50.300Z,985.18
2018-03-31T11:26:50.244Z,985.15
2018-03-31T11:27:50.160Z,985.01
2018-03-31T11:28:50.075Z,985.23
2018-03-31T11:29:50.011Z,985.06
2018-03-31T11:30:49.938Z,985.12
2018-03-31T11:31:49.884Z,985.19
2018-03-31T11:32:49.816Z,985.12
2018-03-31T11:33:49.748Z,984.98
2018-03-31T11:34:49.659Z,985.13
2018-03-31T11:35:49.593Z,985.23
2018-03-31T11:36:49.543Z,985.16
2018-03-31T11:37:49.538Z,985.23
2018-03-31T11:38:49.406Z,985.32
2018-03-31T11:39:49.341Z,985.23
2018-03-31T11:40:49.240Z,985.07
2018-03-31T11:41:49.172Z,985.17
2018-03-31T11:42:49.130Z,985.30
2018-03-31T11:43:49.038Z,985.25
2018-03-31T11:44:48.990Z,985.14
2018-03-31T11:45:48.902Z,985.27
2018-03-31T11:46:48.846Z,985.28
2018-03-31T11:47:48.760Z,985.38
2018-03-31T11:48:48.700Z,985.27
2018-03-31T11:49:48.622Z,985.23
2018-03-31T11:50:48.548Z,985.19
2018-03-31T11:51:48.477Z,985.31
2018-03-31T11:52:48.433Z,985.28
2018-03-31T11:53:48.335Z,985.14
2018-03-31T11:54:48.295Z,985.41
2018-03-31T11:55:48.212Z,985.32
2018-03-31T11:56:48.127Z,985.31
2018-03-31T11:57:48.082Z,985.41
2018-03-31T11:58:47.995Z,985.40
2018-03-31T11:59:47.922Z,985.39
2018-03-31T12:00:47.860Z,985.29
2018-03-31T12:01:47.781Z,985.29
2018-03-31T12:02:47.728Z,985.30
2018-03-31T12:03:47.664Z,985.49
2018-03-31T12:04:47.578Z,985.41
2018-03-31T12:05:47.527Z,985.33
2018-03-31T12:06:47.438Z,985.47
2018-03-31T12:07:47.361Z,985.35
2018-03-31T12:08:47.307Z,985.38
2018-03-31T12:09:47.222Z,985.63
2018-03-31T12:10:47.154Z,985.31
2018-03-31T12:11:47.094Z,985.11
2018-03-31T12:12:47.028Z,985.42
2018-03-31T12:13:46.962Z,985.51
2018-03-31T12:14:46.869Z,985.50
2018-03-31T12:15:46.806Z,985.40
2018-03-31T12:16:46.754Z,985.46
2018-03-31T12:17:46.671Z,985.43
2018-03-31T12:18:46.588Z,985.58
2018-03-31T12:19:46.541Z,985.49
2018-03-31T12:20:46.454Z,985.65
2018-03-31T12:21:46.408Z,985.56
2018-03-31T12:22:46.328Z,985.57
2018-03-31T12:23:46.258Z,985.50
2018-03-31T12:24:46.175Z,985.46
2018-03-31T12:25:46.121Z,985.67
2018-03-31T12:26:46.033Z,985.53
2018-03-31T12:27:45.965Z,985.60